sensor_id;sensor_type;location;lat;lon;timestamp;temperature;humidity
8633;DHT22;4354;49.832;10.746;2023-03-14T00:01:26;9.40;99.90
8633;DHT22;4354;49.832;10.746;2023-03-14T00:03:53;9.30;99.90
8633;DHT22;4354;49.832;10.746;2023-03-14T00:06:20;9.20;99.90
8633;DHT22;4354;49.832;10.746;2023-03-14T00:08:47;9.20;99.90
8633;DHT22;4354;49.832;10.746;2023-03-14T00:11:17;9.10;99.90
8633;DHT22;4354;49.832;10.746;2023-03-14T00:13:50;9.10;99.90
8633;DHT22;4354;49.832;10.746;2023-03-14T00:16:17;9.10;99.90
8633;DHT22;4354;49.832;10.746;2023-03-14T00:18:44;9.10;99.90
8633;DHT22;4354;49.832;10.746;2023-03-14T00:21:11;9.20;99.90
8633;DHT22;4354;49.832;10.746;2023-03-14T00:23:40;9.10;99.90
8633;DHT22;4354;49.832;10.746;2023-03-14T00:26:14;9.20;99.90
8633;DHT22;4354;49.832;10.746;2023-03-14T00:28:42;9.10;99.90
8633;DHT22;4354;49.832;10.746;2023-03-14T00:31:12;9.10;99.90
8633;DHT22;4354;49.832;10.746;2023-03-14T00:33:39;9.40;99.90
8633;DHT22;4354;49.832;10.746;2023-03-14T00:36:09;9.10;99.90
8633;DHT22;4354;49.832;10.746;2023-03-14T00:38:38;9.10;99.90
8633;DHT22;4354;49.832;10.746;2023-03-14T00:41:07;9.10;99.90
8633;DHT22;4354;49.832;10.746;2023-03-14T00:43:34;9.10;99.90
8633;DHT22;4354;49.832;10.746;2023-03-14T00:46:01;9.10;99.90
8633;DHT22;4354;49.832;10.746;2023-03-14T00:48:28;9.20;99.90
8633;DHT22;4354;49.832;10.746;2023-03-14T00:50:55;9.30;99.90
8633;DHT22;4354;49.832;10.746;2023-03-14T00:53:22;9.30;99.90
8633;DHT22;4354;49.832;10.746;2023-03-14T00:55:49;9.40;99.90
8633;DHT22;4354;49.832;10.746;2023-03-14T00:58:17;9.40;99.90
8633;DHT22;4354;49.832;10.746;2023-03-14T01:00:45;9.40;99.90
8633;DHT22;4354;49.832;10.746;2023-03-14T01:03:13;9.50;99.90
8633;DHT22;4354;49.832;10.746;2023-03-14T01:05:40;9.60;99.90
8633;DHT22;4354;49.832;10.746;2023-03-14T01:08:07;9.50;99.90
8633;DHT22;4354;49.832;10.746;2023-03-14T01:10:37;9.60;99.90
8633;DHT22;4354;49.832;10.746;2023-03-14T01:13:04;9.70;99.90
8633;DHT22;4354;49.832;10.746;2023-03-14T01:15:33;9.70;99.90
8633;DHT22;4354;49.832;10.746;2023-03-14T01:18:00;9.70;99.90
8633;DHT22;4354;49.832;10.746;2023-03-14T01:20:27;9.70;99.90
8633;DHT22;4354;49.832;10.746;2023-03-14T01:22:53;9.80;99.90
8633;DHT22;4354;49.832;10.746;2023-03-14T01:25:20;9.80;99.90
8633;DHT22;4354;49.832;10.746;2023-03-14T01:27:47;9.80;99.90
8633;DHT22;4354;49.832;10.746;2023-03-14T01:30:14;9.80;99.90
8633;DHT22;4354;49.832;10.746;2023-03-14T01:32:41;9.80;99.90
8633;DHT22;4354;49.832;10.746;2023-03-14T01:35:08;9.70;99.90
8633;DHT22;4354;49.832;10.746;2023-03-14T01:37:35;9.70;99.90
8633;DHT22;4354;49.832;10.746;2023-03-14T01:40:02;9.70;99.90
8633;DHT22;4354;49.832;10.746;2023-03-14T01:42:30;9.70;99.90
8633;DHT22;4354;49.832;10.746;2023-03-14T01:44:58;9.60;99.90
8633;DHT22;4354;49.832;10.746;2023-03-14T01:47:26;9.70;99.90
8633;DHT22;4354;49.832;10.746;2023-03-14T01:49:57;9.70;99.90
8633;DHT22;4354;49.832;10.746;2023-03-14T01:52:35;9.70;99.90
8633;DHT22;4354;49.832;10.746;2023-03-14T01:55:15;9.80;99.90
8633;DHT22;4354;49.832;10.746;2023-03-14T01:57:52;9.60;99.90
8633;DHT22;4354;49.832;10.746;2023-03-14T02:00:22;9.70;99.90
8633;DHT22;4354;49.832;10.746;2023-03-14T02:02:51;9.70;99.90
8633;DHT22;4354;49.832;10.746;2023-03-14T02:05:21;10.00;99.90
8633;DHT22;4354;49.832;10.746;2023-03-14T02:07:54;9.80;99.90
8633;DHT22;4354;49.832;10.746;2023-03-14T02:10:25;9.90;99.90
8633;DHT22;4354;49.832;10.746;2023-03-14T02:12:56;9.90;99.90
8633;DHT22;4354;49.832;10.746;2023-03-14T02:15:23;10.00;99.90
8633;DHT22;4354;49.832;10.746;2023-03-14T02:17:51;10.00;99.90
8633;DHT22;4354;49.832;10.746;2023-03-14T02:20:38;10.00;99.90
8633;DHT22;4354;49.832;10.746;2023-03-14T02:23:07;10.00;99.90
8633;DHT22;4354;49.832;10.746;2023-03-14T02:25:41;9.90;99.90
8633;DHT22;4354;49.832;10.746;2023-03-14T02:28:10;10.00;99.90
8633;DHT22;4354;49.832;10.746;2023-03-14T02:30:37;9.90;99.90
8633;DHT22;4354;49.832;10.746;2023-03-14T02:33:12;9.90;99.90
8633;DHT22;4354;49.832;10.746;2023-03-14T02:35:59;10.10;99.90
8633;DHT22;4354;49.832;10.746;2023-03-14T02:38:50;9.90;99.90
8633;DHT22;4354;49.832;10.746;2023-03-14T02:41:21;9.80;99.90
8633;DHT22;4354;49.832;10.746;2023-03-14T02:43:47;9.90;99.90
8633;DHT22;4354;49.832;10.746;2023-03-14T02:46:18;10.00;99.90
8633;DHT22;4354;49.832;10.746;2023-03-14T02:49:03;9.70;99.90
8633;DHT22;4354;49.832;10.746;2023-03-14T02:51:31;9.80;99.90
8633;DHT22;4354;49.832;10.746;2023-03-14T02:53:58;9.70;99.90
8633;DHT22;4354;49.832;10.746;2023-03-14T02:56:25;9.70;99.90
8633;DHT22;4354;49.832;10.746;2023-03-14T02:58:52;9.70;99.90
8633;DHT22;4354;49.832;10.746;2023-03-14T03:01:18;9.70;99.90
8633;DHT22;4354;49.832;10.746;2023-03-14T03:03:45;9.90;99.90
8633;DHT22;4354;49.832;10.746;2023-03-14T03:06:12;10.00;99.90
8633;DHT22;4354;49.832;10.746;2023-03-14T03:08:39;9.80;99.90
8633;DHT22;4354;49.832;10.746;2023-03-14T03:11:06;9.90;99.90
8633;DHT22;4354;49.832;10.746;2023-03-14T03:13:33;9.70;99.90
8633;DHT22;4354;49.832;10.746;2023-03-14T03:16:00;9.70;99.90
8633;DHT22;4354;49.832;10.746;2023-03-14T03:18:27;9.70;99.90
8633;DHT22;4354;49.832;10.746;2023-03-14T03:20:54;9.40;99.90
8633;DHT22;4354;49.832;10.746;2023-03-14T03:23:20;9.50;99.90
8633;DHT22;4354;49.832;10.746;2023-03-14T03:25:50;9.40;99.90
8633;DHT22;4354;49.832;10.746;2023-03-14T03:28:18;9.30;99.90
8633;DHT22;4354;49.832;10.746;2023-03-14T03:30:45;9.50;99.90
8633;DHT22;4354;49.832;10.746;2023-03-14T03:33:13;9.40;99.90
8633;DHT22;4354;49.832;10.746;2023-03-14T03:35:48;9.20;99.90
8633;DHT22;4354;49.832;10.746;2023-03-14T03:38:15;9.40;99.90
8633;DHT22;4354;49.832;10.746;2023-03-14T03:40:43;9.10;99.90
8633;DHT22;4354;49.832;10.746;2023-03-14T03:43:09;9.10;99.90
8633;DHT22;4354;49.832;10.746;2023-03-14T03:45:36;9.00;99.90
8633;DHT22;4354;49.832;10.746;2023-03-14T03:48:03;9.00;99.90
8633;DHT22;4354;49.832;10.746;2023-03-14T03:50:30;8.90;99.90
8633;DHT22;4354;49.832;10.746;2023-03-14T03:52:57;8.90;99.90
8633;DHT22;4354;49.832;10.746;2023-03-14T03:55:23;8.70;99.90
8633;DHT22;4354;49.832;10.746;2023-03-14T03:57:52;8.70;99.90
8633;DHT22;4354;49.832;10.746;2023-03-14T04:00:19;8.70;99.90
8633;DHT22;4354;49.832;10.746;2023-03-14T04:02:45;8.70;99.90
8633;DHT22;4354;49.832;10.746;2023-03-14T04:05:12;8.70;99.90
8633;DHT22;4354;49.832;10.746;2023-03-14T04:07:39;8.60;99.90
8633;DHT22;4354;49.832;10.746;2023-03-14T04:10:06;8.70;99.90
8633;DHT22;4354;49.832;10.746;2023-03-14T04:12:33;8.70;99.90
8633;DHT22;4354;49.832;10.746;2023-03-14T04:15:00;8.80;99.90
8633;DHT22;4354;49.832;10.746;2023-03-14T04:17:27;8.90;99.90
8633;DHT22;4354;49.832;10.746;2023-03-14T04:19:53;8.90;99.90
8633;DHT22;4354;49.832;10.746;2023-03-14T04:22:20;8.90;99.90
8633;DHT22;4354;49.832;10.746;2023-03-14T04:24:47;8.90;99.90
8633;DHT22;4354;49.832;10.746;2023-03-14T04:27:14;9.10;99.90
8633;DHT22;4354;49.832;10.746;2023-03-14T04:29:42;9.00;99.90
8633;DHT22;4354;49.832;10.746;2023-03-14T04:32:09;8.40;99.90
8633;DHT22;4354;49.832;10.746;2023-03-14T04:34:36;9.00;99.90
8633;DHT22;4354;49.832;10.746;2023-03-14T04:37:03;9.10;99.90
8633;DHT22;4354;49.832;10.746;2023-03-14T04:39:30;9.20;99.90
8633;DHT22;4354;49.832;10.746;2023-03-14T04:41:56;9.20;99.90
8633;DHT22;4354;49.832;10.746;2023-03-14T04:44:23;9.10;99.90
8633;DHT22;4354;49.832;10.746;2023-03-14T04:46:50;9.10;99.90
8633;DHT22;4354;49.832;10.746;2023-03-14T04:49:17;9.20;99.90
8633;DHT22;4354;49.832;10.746;2023-03-14T04:51:44;9.40;99.90
8633;DHT22;4354;49.832;10.746;2023-03-14T04:54:10;9.20;99.90
8633;DHT22;4354;49.832;10.746;2023-03-14T04:56:37;9.10;99.90
8633;DHT22;4354;49.832;10.746;2023-03-14T04:59:04;9.50;99.90
8633;DHT22;4354;49.832;10.746;2023-03-14T05:01:31;9.20;99.90
8633;DHT22;4354;49.832;10.746;2023-03-14T05:03:58;9.20;99.90
8633;DHT22;4354;49.832;10.746;2023-03-14T05:06:24;9.10;99.90
8633;DHT22;4354;49.832;10.746;2023-03-14T05:08:51;9.00;99.90
8633;DHT22;4354;49.832;10.746;2023-03-14T05:11:18;9.00;99.90
8633;DHT22;4354;49.832;10.746;2023-03-14T05:13:45;9.00;99.90
8633;DHT22;4354;49.832;10.746;2023-03-14T05:16:12;8.90;99.90
8633;DHT22;4354;49.832;10.746;2023-03-14T05:18:39;8.90;99.90
8633;DHT22;4354;49.832;10.746;2023-03-14T05:21:06;8.90;99.90
8633;DHT22;4354;49.832;10.746;2023-03-14T05:23:32;8.90;99.90
8633;DHT22;4354;49.832;10.746;2023-03-14T05:25:59;8.80;99.90
8633;DHT22;4354;49.832;10.746;2023-03-14T05:28:26;8.70;99.90
8633;DHT22;4354;49.832;10.746;2023-03-14T05:30:53;8.60;99.90
8633;DHT22;4354;49.832;10.746;2023-03-14T05:33:20;8.60;99.90
8633;DHT22;4354;49.832;10.746;2023-03-14T05:35:46;8.60;99.90
8633;DHT22;4354;49.832;10.746;2023-03-14T05:38:13;8.70;99.90
8633;DHT22;4354;49.832;10.746;2023-03-14T05:40:40;8.70;99.90
8633;DHT22;4354;49.832;10.746;2023-03-14T05:43:08;8.60;99.90
8633;DHT22;4354;49.832;10.746;2023-03-14T05:45:34;8.60;99.90
8633;DHT22;4354;49.832;10.746;2023-03-14T05:48:02;8.50;99.90
8633;DHT22;4354;49.832;10.746;2023-03-14T05:50:29;8.70;99.90
8633;DHT22;4354;49.832;10.746;2023-03-14T05:52:55;8.50;99.90
8633;DHT22;4354;49.832;10.746;2023-03-14T05:55:22;8.50;99.90
8633;DHT22;4354;49.832;10.746;2023-03-14T05:57:49;8.40;99.90
8633;DHT22;4354;49.832;10.746;2023-03-14T06:00:16;8.50;99.90
8633;DHT22;4354;49.832;10.746;2023-03-14T06:02:43;8.60;99.90
8633;DHT22;4354;49.832;10.746;2023-03-14T06:05:10;8.70;99.90
8633;DHT22;4354;49.832;10.746;2023-03-14T06:07:37;8.70;99.90
8633;DHT22;4354;49.832;10.746;2023-03-14T06:10:04;8.60;99.90
8633;DHT22;4354;49.832;10.746;2023-03-14T06:12:31;8.60;99.90
8633;DHT22;4354;49.832;10.746;2023-03-14T06:14:58;8.60;99.90
8633;DHT22;4354;49.832;10.746;2023-03-14T06:17:25;8.40;99.90
8633;DHT22;4354;49.832;10.746;2023-03-14T06:19:52;8.60;99.90
8633;DHT22;4354;49.832;10.746;2023-03-14T06:22:18;8.60;99.90
8633;DHT22;4354;49.832;10.746;2023-03-14T06:24:46;8.70;99.90
8633;DHT22;4354;49.832;10.746;2023-03-14T06:27:12;8.70;99.90
8633;DHT22;4354;49.832;10.746;2023-03-14T06:29:39;8.80;99.90
8633;DHT22;4354;49.832;10.746;2023-03-14T06:32:06;8.80;99.90
8633;DHT22;4354;49.832;10.746;2023-03-14T06:34:33;8.80;99.90
8633;DHT22;4354;49.832;10.746;2023-03-14T06:37:00;9.00;99.90
8633;DHT22;4354;49.832;10.746;2023-03-14T06:39:26;9.10;99.90
8633;DHT22;4354;49.832;10.746;2023-03-14T06:41:53;9.10;99.90
8633;DHT22;4354;49.832;10.746;2023-03-14T06:44:20;9.20;99.90
8633;DHT22;4354;49.832;10.746;2023-03-14T06:46:46;9.30;99.90
8633;DHT22;4354;49.832;10.746;2023-03-14T06:49:13;9.30;99.90
8633;DHT22;4354;49.832;10.746;2023-03-14T06:51:40;9.40;99.90
8633;DHT22;4354;49.832;10.746;2023-03-14T06:54:07;9.40;99.90
8633;DHT22;4354;49.832;10.746;2023-03-14T06:56:33;9.60;99.90
8633;DHT22;4354;49.832;10.746;2023-03-14T06:59:00;9.70;99.90
8633;DHT22;4354;49.832;10.746;2023-03-14T07:01:29;9.80;99.90
8633;DHT22;4354;49.832;10.746;2023-03-14T07:03:56;9.90;99.90
8633;DHT22;4354;49.832;10.746;2023-03-14T07:06:23;10.00;99.90
8633;DHT22;4354;49.832;10.746;2023-03-14T07:08:50;10.00;99.90
8633;DHT22;4354;49.832;10.746;2023-03-14T07:11:17;10.00;99.90
8633;DHT22;4354;49.832;10.746;2023-03-14T07:13:44;10.20;99.90
8633;DHT22;4354;49.832;10.746;2023-03-14T07:16:10;10.30;99.90
8633;DHT22;4354;49.832;10.746;2023-03-14T07:18:37;10.20;99.90
8633;DHT22;4354;49.832;10.746;2023-03-14T07:21:06;10.30;99.90
8633;DHT22;4354;49.832;10.746;2023-03-14T07:23:33;10.20;99.90
8633;DHT22;4354;49.832;10.746;2023-03-14T07:26:00;10.30;99.90
8633;DHT22;4354;49.832;10.746;2023-03-14T07:28:27;10.40;99.90
8633;DHT22;4354;49.832;10.746;2023-03-14T07:30:54;10.50;99.90
8633;DHT22;4354;49.832;10.746;2023-03-14T07:33:21;10.60;99.90
8633;DHT22;4354;49.832;10.746;2023-03-14T07:35:49;10.80;99.90
8633;DHT22;4354;49.832;10.746;2023-03-14T07:38:16;10.90;99.90
8633;DHT22;4354;49.832;10.746;2023-03-14T07:40:43;11.00;99.90
8633;DHT22;4354;49.832;10.746;2023-03-14T07:43:10;11.30;99.90
8633;DHT22;4354;49.832;10.746;2023-03-14T07:45:36;11.90;99.90
8633;DHT22;4354;49.832;10.746;2023-03-14T07:48:08;12.20;99.90
8633;DHT22;4354;49.832;10.746;2023-03-14T07:50:36;12.50;99.90
8633;DHT22;4354;49.832;10.746;2023-03-14T07:53:03;12.40;99.90
8633;DHT22;4354;49.832;10.746;2023-03-14T07:55:29;12.10;99.90
8633;DHT22;4354;49.832;10.746;2023-03-14T07:57:56;12.00;99.90
8633;DHT22;4354;49.832;10.746;2023-03-14T08:00:23;11.90;99.90
8633;DHT22;4354;49.832;10.746;2023-03-14T08:02:50;12.20;99.90
8633;DHT22;4354;49.832;10.746;2023-03-14T08:05:17;12.50;99.90
8633;DHT22;4354;49.832;10.746;2023-03-14T08:07:43;12.30;99.90
8633;DHT22;4354;49.832;10.746;2023-03-14T08:10:10;12.30;99.90
8633;DHT22;4354;49.832;10.746;2023-03-14T08:12:39;12.20;99.90
8633;DHT22;4354;49.832;10.746;2023-03-14T08:15:06;12.30;99.90
8633;DHT22;4354;49.832;10.746;2023-03-14T08:17:33;12.40;99.90
8633;DHT22;4354;49.832;10.746;2023-03-14T08:19:59;12.70;99.90
8633;DHT22;4354;49.832;10.746;2023-03-14T08:22:26;12.70;99.90
8633;DHT22;4354;49.832;10.746;2023-03-14T08:24:53;12.50;99.90
8633;DHT22;4354;49.832;10.746;2023-03-14T08:27:20;12.30;99.90
8633;DHT22;4354;49.832;10.746;2023-03-14T08:29:46;12.10;99.90
8633;DHT22;4354;49.832;10.746;2023-03-14T08:32:13;12.00;99.90
8633;DHT22;4354;49.832;10.746;2023-03-14T08:34:40;12.00;99.90
8633;DHT22;4354;49.832;10.746;2023-03-14T08:37:07;11.80;99.90
8633;DHT22;4354;49.832;10.746;2023-03-14T08:39:49;11.80;99.90
8633;DHT22;4354;49.832;10.746;2023-03-14T08:42:15;11.70;99.90
8633;DHT22;4354;49.832;10.746;2023-03-14T08:44:42;11.50;99.90
8633;DHT22;4354;49.832;10.746;2023-03-14T08:47:09;11.30;99.90
8633;DHT22;4354;49.832;10.746;2023-03-14T08:49:36;11.40;99.90
8633;DHT22;4354;49.832;10.746;2023-03-14T08:52:04;11.30;99.90
8633;DHT22;4354;49.832;10.746;2023-03-14T08:54:31;11.20;99.90
8633;DHT22;4354;49.832;10.746;2023-03-14T08:56:58;11.20;99.90
8633;DHT22;4354;49.832;10.746;2023-03-14T08:59:25;11.20;99.90
8633;DHT22;4354;49.832;10.746;2023-03-14T09:01:52;11.20;1.00
8633;DHT22;4354;49.832;10.746;2023-03-14T09:04:18;11.20;1.00
8633;DHT22;4354;49.832;10.746;2023-03-14T09:06:45;11.10;99.90
8633;DHT22;4354;49.832;10.746;2023-03-14T09:09:12;11.00;99.90
8633;DHT22;4354;49.832;10.746;2023-03-14T09:11:40;11.10;99.90
8633;DHT22;4354;49.832;10.746;2023-03-14T09:14:07;10.90;1.00
8633;DHT22;4354;49.832;10.746;2023-03-14T09:16:34;10.90;1.00
8633;DHT22;4354;49.832;10.746;2023-03-14T09:19:01;10.90;99.90
8633;DHT22;4354;49.832;10.746;2023-03-14T09:21:27;10.80;99.90
8633;DHT22;4354;49.832;10.746;2023-03-14T09:23:54;10.80;99.90
8633;DHT22;4354;49.832;10.746;2023-03-14T09:26:21;10.90;99.90
8633;DHT22;4354;49.832;10.746;2023-03-14T09:28:50;11.00;99.90
8633;DHT22;4354;49.832;10.746;2023-03-14T09:31:17;11.10;99.90
8633;DHT22;4354;49.832;10.746;2023-03-14T09:33:44;11.10;99.90
8633;DHT22;4354;49.832;10.746;2023-03-14T09:36:11;11.30;99.90
8633;DHT22;4354;49.832;10.746;2023-03-14T09:38:38;11.40;99.90
8633;DHT22;4354;49.832;10.746;2023-03-14T09:41:17;11.60;99.90
8633;DHT22;4354;49.832;10.746;2023-03-14T09:43:46;11.80;99.90
8633;DHT22;4354;49.832;10.746;2023-03-14T09:46:14;11.80;99.90
8633;DHT22;4354;49.832;10.746;2023-03-14T09:48:41;11.90;99.90
8633;DHT22;4354;49.832;10.746;2023-03-14T09:51:17;12.20;1.00
8633;DHT22;4354;49.832;10.746;2023-03-14T09:53:47;12.50;1.00
8633;DHT22;4354;49.832;10.746;2023-03-14T09:56:25;12.90;99.90
8633;DHT22;4354;49.832;10.746;2023-03-14T09:59:03;13.20;99.90
8633;DHT22;4354;49.832;10.746;2023-03-14T10:01:32;12.90;99.90
8633;DHT22;4354;49.832;10.746;2023-03-14T10:04:10;12.80;99.90
8633;DHT22;4354;49.832;10.746;2023-03-14T10:06:40;12.80;99.90
8633;DHT22;4354;49.832;10.746;2023-03-14T10:09:14;12.80;99.90
8633;DHT22;4354;49.832;10.746;2023-03-14T10:11:43;12.80;99.90
8633;DHT22;4354;49.832;10.746;2023-03-14T10:14:11;12.90;99.90
8633;DHT22;4354;49.832;10.746;2023-03-14T10:16:43;12.90;99.90
8633;DHT22;4354;49.832;10.746;2023-03-14T10:19:12;12.90;99.90
8633;DHT22;4354;49.832;10.746;2023-03-14T10:21:41;13.40;99.90
8633;DHT22;4354;49.832;10.746;2023-03-14T10:24:33;13.90;99.90
8633;DHT22;4354;49.832;10.746;2023-03-14T10:27:01;15.40;99.90
8633;DHT22;4354;49.832;10.746;2023-03-14T10:29:31;16.40;99.90
8633;DHT22;4354;49.832;10.746;2023-03-14T10:32:05;16.20;99.90
8633;DHT22;4354;49.832;10.746;2023-03-14T10:34:36;16.30;99.90
8633;DHT22;4354;49.832;10.746;2023-03-14T10:37:21;16.10;99.90
8633;DHT22;4354;49.832;10.746;2023-03-14T10:39:51;15.70;99.90
8633;DHT22;4354;49.832;10.746;2023-03-14T10:42:29;14.90;99.90
8633;DHT22;4354;49.832;10.746;2023-03-14T10:45:01;14.40;99.90
8633;DHT22;4354;49.832;10.746;2023-03-14T10:47:29;14.10;99.90
8633;DHT22;4354;49.832;10.746;2023-03-14T10:49:57;14.10;99.90
8633;DHT22;4354;49.832;10.746;2023-03-14T10:52:47;14.30;99.90
8633;DHT22;4354;49.832;10.746;2023-03-14T10:55:28;14.40;99.90
8633;DHT22;4354;49.832;10.746;2023-03-14T10:57:55;14.40;99.90
8633;DHT22;4354;49.832;10.746;2023-03-14T11:00:23;14.50;99.90
8633;DHT22;4354;49.832;10.746;2023-03-14T11:03:02;14.20;99.90
8633;DHT22;4354;49.832;10.746;2023-03-14T11:05:34;14.00;99.90
8633;DHT22;4354;49.832;10.746;2023-03-14T11:08:14;14.10;99.90
8633;DHT22;4354;49.832;10.746;2023-03-14T11:10:44;14.20;99.90
8633;DHT22;4354;49.832;10.746;2023-03-14T11:21:42;16.30;99.90
8633;DHT22;4354;49.832;10.746;2023-03-14T11:24:33;15.70;99.90
8633;DHT22;4354;49.832;10.746;2023-03-14T11:30:17;17.60;99.90
8633;DHT22;4354;49.832;10.746;2023-03-14T11:33:15;19.00;99.90
8633;DHT22;4354;49.832;10.746;2023-03-14T11:36:08;19.70;99.90
8633;DHT22;4354;49.832;10.746;2023-03-14T11:41:14;20.20;99.90
8633;DHT22;4354;49.832;10.746;2023-03-14T11:43:52;19.20;99.90
8633;DHT22;4354;49.832;10.746;2023-03-14T11:46:25;19.00;99.90
8633;DHT22;4354;49.832;10.746;2023-03-14T11:49:17;18.80;99.90
8633;DHT22;4354;49.832;10.746;2023-03-14T11:51:54;18.60;99.90
8633;DHT22;4354;49.832;10.746;2023-03-14T11:54:41;18.70;99.90
8633;DHT22;4354;49.832;10.746;2023-03-14T11:57:17;18.50;99.90
8633;DHT22;4354;49.832;10.746;2023-03-14T11:59:55;17.80;99.90
8633;DHT22;4354;49.832;10.746;2023-03-14T12:10:43;17.10;99.90
8633;DHT22;4354;49.832;10.746;2023-03-14T12:13:13;16.40;99.90
8633;DHT22;4354;49.832;10.746;2023-03-14T12:15:54;15.80;99.90
8633;DHT22;4354;49.832;10.746;2023-03-14T12:18:33;15.60;99.90
8633;DHT22;4354;49.832;10.746;2023-03-14T12:21:05;15.50;99.90
8633;DHT22;4354;49.832;10.746;2023-03-14T12:29:09;14.30;99.90
8633;DHT22;4354;49.832;10.746;2023-03-14T12:45:29;12.80;99.90
8633;DHT22;4354;49.832;10.746;2023-03-14T12:48:24;12.60;99.90
8633;DHT22;4354;49.832;10.746;2023-03-14T12:51:00;12.40;99.90
8633;DHT22;4354;49.832;10.746;2023-03-14T12:56:33;12.30;99.90
8633;DHT22;4354;49.832;10.746;2023-03-14T13:01:36;12.40;99.90
8633;DHT22;4354;49.832;10.746;2023-03-14T13:04:08;12.50;99.90
8633;DHT22;4354;49.832;10.746;2023-03-14T13:06:56;12.30;99.90
8633;DHT22;4354;49.832;10.746;2023-03-14T13:12:18;11.80;99.90
8633;DHT22;4354;49.832;10.746;2023-03-14T13:14:47;11.50;99.90
8633;DHT22;4354;49.832;10.746;2023-03-14T13:17:22;11.20;99.90
8633;DHT22;4354;49.832;10.746;2023-03-14T13:20:22;11.00;99.90
8633;DHT22;4354;49.832;10.746;2023-03-14T13:22:54;11.00;99.90
8633;DHT22;4354;49.832;10.746;2023-03-14T13:25:21;10.80;99.90
8633;DHT22;4354;49.832;10.746;2023-03-14T13:27:52;10.60;99.90
8633;DHT22;4354;49.832;10.746;2023-03-14T13:30:27;10.70;99.90
8633;DHT22;4354;49.832;10.746;2023-03-14T13:32:55;10.60;99.90
8633;DHT22;4354;49.832;10.746;2023-03-14T13:35:28;10.60;99.90
8633;DHT22;4354;49.832;10.746;2023-03-14T13:37:57;10.40;99.90
8633;DHT22;4354;49.832;10.746;2023-03-14T13:40:36;10.50;99.90
8633;DHT22;4354;49.832;10.746;2023-03-14T13:45:54;10.30;99.90
8633;DHT22;4354;49.832;10.746;2023-03-14T13:48:26;10.20;99.90
8633;DHT22;4354;49.832;10.746;2023-03-14T13:51:00;10.20;99.90
8633;DHT22;4354;49.832;10.746;2023-03-14T13:53:28;10.30;99.90
8633;DHT22;4354;49.832;10.746;2023-03-14T13:55:54;10.20;99.90
8633;DHT22;4354;49.832;10.746;2023-03-14T13:58:27;10.30;99.90
8633;DHT22;4354;49.832;10.746;2023-03-14T14:01:02;10.30;99.90
8633;DHT22;4354;49.832;10.746;2023-03-14T14:03:34;10.20;99.90
8633;DHT22;4354;49.832;10.746;2023-03-14T14:06:04;10.40;99.90
8633;DHT22;4354;49.832;10.746;2023-03-14T14:08:32;10.20;99.90
8633;DHT22;4354;49.832;10.746;2023-03-14T14:11:03;10.20;99.90
8633;DHT22;4354;49.832;10.746;2023-03-14T14:13:33;10.10;99.90
8633;DHT22;4354;49.832;10.746;2023-03-14T14:16:02;10.10;99.90
8633;DHT22;4354;49.832;10.746;2023-03-14T14:18:31;10.10;99.90
8633;DHT22;4354;49.832;10.746;2023-03-14T14:20:58;10.10;99.90
8633;DHT22;4354;49.832;10.746;2023-03-14T14:23:27;10.10;99.90
8633;DHT22;4354;49.832;10.746;2023-03-14T14:25:56;10.20;99.90
8633;DHT22;4354;49.832;10.746;2023-03-14T14:28:30;10.30;99.90
8633;DHT22;4354;49.832;10.746;2023-03-14T14:33:27;10.40;99.90
8633;DHT22;4354;49.832;10.746;2023-03-14T14:35:57;10.60;99.90
8633;DHT22;4354;49.832;10.746;2023-03-14T14:38:24;10.20;99.90
8633;DHT22;4354;49.832;10.746;2023-03-14T14:40:54;10.00;99.90
8633;DHT22;4354;49.832;10.746;2023-03-14T14:43:24;10.00;99.90
8633;DHT22;4354;49.832;10.746;2023-03-14T14:45:54;9.90;99.90
8633;DHT22;4354;49.832;10.746;2023-03-14T14:48:23;9.80;99.90
8633;DHT22;4354;49.832;10.746;2023-03-14T14:51:00;9.80;99.90
8633;DHT22;4354;49.832;10.746;2023-03-14T14:53:39;9.60;99.90
8633;DHT22;4354;49.832;10.746;2023-03-14T14:56:24;9.60;99.90
8633;DHT22;4354;49.832;10.746;2023-03-14T14:58:59;9.50;99.90
8633;DHT22;4354;49.832;10.746;2023-03-14T15:01:38;9.50;99.90
8633;DHT22;4354;49.832;10.746;2023-03-14T15:04:13;9.50;99.90
8633;DHT22;4354;49.832;10.746;2023-03-14T15:06:46;9.50;99.90
8633;DHT22;4354;49.832;10.746;2023-03-14T15:09:15;9.60;99.90
8633;DHT22;4354;49.832;10.746;2023-03-14T15:11:43;9.60;99.90
8633;DHT22;4354;49.832;10.746;2023-03-14T15:14:10;9.50;99.90
8633;DHT22;4354;49.832;10.746;2023-03-14T15:16:38;9.70;99.90
8633;DHT22;4354;49.832;10.746;2023-03-14T15:19:21;9.60;99.90
8633;DHT22;4354;49.832;10.746;2023-03-14T15:21:52;9.70;99.90
8633;DHT22;4354;49.832;10.746;2023-03-14T15:24:19;9.40;99.90
8633;DHT22;4354;49.832;10.746;2023-03-14T15:26:46;9.50;99.90
8633;DHT22;4354;49.832;10.746;2023-03-14T15:29:12;9.50;99.90
8633;DHT22;4354;49.832;10.746;2023-03-14T15:31:41;9.40;99.90
8633;DHT22;4354;49.832;10.746;2023-03-14T15:34:10;9.40;99.90
8633;DHT22;4354;49.832;10.746;2023-03-14T15:36:37;9.30;99.90
8633;DHT22;4354;49.832;10.746;2023-03-14T15:39:05;9.30;99.90
8633;DHT22;4354;49.832;10.746;2023-03-14T15:41:33;9.00;99.90
8633;DHT22;4354;49.832;10.746;2023-03-14T15:44:00;9.00;99.90
8633;DHT22;4354;49.832;10.746;2023-03-14T15:46:26;8.90;99.90
8633;DHT22;4354;49.832;10.746;2023-03-14T15:48:56;8.80;99.90
8633;DHT22;4354;49.832;10.746;2023-03-14T15:51:23;8.60;99.90
8633;DHT22;4354;49.832;10.746;2023-03-14T15:53:49;8.60;99.90
8633;DHT22;4354;49.832;10.746;2023-03-14T15:56:19;8.60;99.90
8633;DHT22;4354;49.832;10.746;2023-03-14T15:58:46;8.50;99.90
8633;DHT22;4354;49.832;10.746;2023-03-14T16:01:14;8.50;99.90
8633;DHT22;4354;49.832;10.746;2023-03-14T16:03:45;8.40;99.90
8633;DHT22;4354;49.832;10.746;2023-03-14T16:06:13;8.30;99.90
8633;DHT22;4354;49.832;10.746;2023-03-14T16:08:40;8.30;99.90
8633;DHT22;4354;49.832;10.746;2023-03-14T16:11:09;8.20;99.90
8633;DHT22;4354;49.832;10.746;2023-03-14T16:13:35;8.20;99.90
8633;DHT22;4354;49.832;10.746;2023-03-14T16:16:04;8.20;99.90
8633;DHT22;4354;49.832;10.746;2023-03-14T16:18:34;8.20;99.90
8633;DHT22;4354;49.832;10.746;2023-03-14T16:21:03;8.10;99.90
8633;DHT22;4354;49.832;10.746;2023-03-14T16:23:32;8.30;99.90
8633;DHT22;4354;49.832;10.746;2023-03-14T16:26:07;8.00;99.90
8633;DHT22;4354;49.832;10.746;2023-03-14T16:28:34;7.90;99.90
8633;DHT22;4354;49.832;10.746;2023-03-14T16:31:07;7.80;99.90
8633;DHT22;4354;49.832;10.746;2023-03-14T16:33:34;8.00;99.90
8633;DHT22;4354;49.832;10.746;2023-03-14T16:36:04;7.70;99.90
8633;DHT22;4354;49.832;10.746;2023-03-14T16:38:35;7.60;99.90
8633;DHT22;4354;49.832;10.746;2023-03-14T16:41:08;7.40;99.90
8633;DHT22;4354;49.832;10.746;2023-03-14T16:43:36;7.30;99.90
8633;DHT22;4354;49.832;10.746;2023-03-14T16:46:05;7.00;99.90
8633;DHT22;4354;49.832;10.746;2023-03-14T16:48:32;6.90;99.90
8633;DHT22;4354;49.832;10.746;2023-03-14T16:50:59;6.70;99.90
8633;DHT22;4354;49.832;10.746;2023-03-14T16:53:25;6.70;99.90
8633;DHT22;4354;49.832;10.746;2023-03-14T16:55:57;6.40;99.90
8633;DHT22;4354;49.832;10.746;2023-03-14T16:58:24;6.30;99.90
8633;DHT22;4354;49.832;10.746;2023-03-14T17:00:51;6.30;99.90
8633;DHT22;4354;49.832;10.746;2023-03-14T17:03:18;6.40;99.90
8633;DHT22;4354;49.832;10.746;2023-03-14T17:05:50;6.20;99.90